Cam Ranh Airport
VVCR : rendu visible

Aérodrome :











RETROUVEZ-NOUS SUR...

 
LOGIN :

S'inscrire | Disclaimer

   EN    FR    IT 

 









Légende :    VFR   VFR Marginal   IFR   IFR Intensif   IFR Très Intensif
Visi : 
Plafond : 
>= 8 km
>= 3000ft
5 à 8 km
1000 à 3000 ft
1500m à 5 km
500 à 1000 ft
800 à 1500m
200 à 500 ft
< 800m
< 200 ft
Symboles :   Orages  Brouillard  Fortes neiges  Fortes précipitations  Vent > 20 kt






- Altitude de l'aérodrome : 40 ft
- Code IATA : CXR


VVCR - Cam Ranh

DERNIER METAR :
  • 280600Z 07011KT 9999 FEW015 29/24 Q1013 NOSIG

METARs EXPIRÉS :
  • 280530Z 06012KT 9999 FEW015 31/22 Q1013 NOSIG
  • 280500Z 06011KT 9999 FEW015 30/22 Q1013 NOSIG
  • 280430Z 06010KT 9999 FEW015 30/22 Q1014 NOSIG
  • 280400Z 05010KT 9999 FEW015 30/22 Q1015 NOSIG
  • 280330Z 04012KT 9999 FEW015 30/21 Q1015 NOSIG

TAF TAF VVCR
Valide du 28 à 06h jusqu'au 29 à 06h UTC


280500Z 2806/2906 04014KT 9999 FEW015
BECMG 2820/2821 34004KT
BECMG 2901/2902 04012KT



MET'MAP, la Météo Aéronautique d'un coup d'oeil ! - Copyright ORBIFLY Décembre 2007 - Disclaimer

ORBIFLY MET'MAP TEAM :

Programmation & Développement : Alexandra Zaïnal
Sur une idée originale de : Baudouin d'Aumeries
Assistance à la programmation : Marc-Olivier Méhu
Soutien technique & logistique : Manuel Goepfert

Contact : metmap@orbifly.com




SOURCES & CREDITS :

   NOAA       Earth
Advisory